sensor_id;sensor_type;location;lat;lon;timestamp;temperature;humidity
3794;DHT22;1912;51.358;12.282;2023-07-08T03:45:27;16.60;1.00
3794;DHT22;1912;51.358;12.282;2023-07-08T03:47:53;16.70;1.00
3794;DHT22;1912;51.358;12.282;2023-07-08T03:50:21;16.70;1.00
3794;DHT22;1912;51.358;12.282;2023-07-08T03:52:51;16.80;1.00
3794;DHT22;1912;51.358;12.282;2023-07-08T03:55:18;16.90;1.00
3794;DHT22;1912;51.358;12.282;2023-07-08T03:57:43;16.90;1.00
3794;DHT22;1912;51.358;12.282;2023-07-08T04:00:09;17.00;1.00
3794;DHT22;1912;51.358;12.282;2023-07-08T04:02:38;16.90;1.00
3794;DHT22;1912;51.358;12.282;2023-07-08T04:05:04;17.00;1.00
3794;DHT22;1912;51.358;12.282;2023-07-08T04:07:31;17.10;1.00
3794;DHT22;1912;51.358;12.282;2023-07-08T04:09:57;17.10;1.00
3794;DHT22;1912;51.358;12.282;2023-07-08T04:12:23;17.20;1.00
3794;DHT22;1912;51.358;12.282;2023-07-08T04:14:48;17.20;1.00
3794;DHT22;1912;51.358;12.282;2023-07-08T04:17:14;17.30;1.00
3794;DHT22;1912;51.358;12.282;2023-07-08T04:19:40;17.40;1.00
3794;DHT22;1912;51.358;12.282;2023-07-08T04:22:09;17.30;1.00
3794;DHT22;1912;51.358;12.282;2023-07-08T04:24:35;17.30;1.00
3794;DHT22;1912;51.358;12.282;2023-07-08T04:27:01;17.20;1.00
3794;DHT22;1912;51.358;12.282;2023-07-08T04:29:26;17.20;1.00
3794;DHT22;1912;51.358;12.282;2023-07-08T04:31:52;17.20;1.00
3794;DHT22;1912;51.358;12.282;2023-07-08T04:34:18;17.30;1.00
3794;DHT22;1912;51.358;12.282;2023-07-08T04:36:44;17.30;1.00
3794;DHT22;1912;51.358;12.282;2023-07-08T04:39:10;17.20;1.00
3794;DHT22;1912;51.358;12.282;2023-07-08T04:41:39;17.30;1.00
3794;DHT22;1912;51.358;12.282;2023-07-08T04:44:15;17.40;1.00
3794;DHT22;1912;51.358;12.282;2023-07-08T04:46:48;17.50;1.00
3794;DHT22;1912;51.358;12.282;2023-07-08T04:49:16;17.60;1.00
3794;DHT22;1912;51.358;12.282;2023-07-08T04:51:42;17.60;1.00
3794;DHT22;1912;51.358;12.282;2023-07-08T04:54:09;17.80;1.00
3794;DHT22;1912;51.358;12.282;2023-07-08T04:56:40;17.90;1.00
3794;DHT22;1912;51.358;12.282;2023-07-08T04:59:09;18.00;1.00
3794;DHT22;1912;51.358;12.282;2023-07-08T05:01:36;18.00;1.00
3794;DHT22;1912;51.358;12.282;2023-07-08T05:04:03;18.10;1.00
3794;DHT22;1912;51.358;12.282;2023-07-08T05:06:33;18.10;1.00
3794;DHT22;1912;51.358;12.282;2023-07-08T05:09:00;18.20;1.00
3794;DHT22;1912;51.358;12.282;2023-07-08T05:11:26;18.20;1.00
3794;DHT22;1912;51.358;12.282;2023-07-08T05:13:52;18.30;1.00
3794;DHT22;1912;51.358;12.282;2023-07-08T05:16:18;18.40;1.00
3794;DHT22;1912;51.358;12.282;2023-07-08T05:18:44;18.40;1.00
3794;DHT22;1912;51.358;12.282;2023-07-08T05:21:10;18.50;1.00
3794;DHT22;1912;51.358;12.282;2023-07-08T05:23:36;18.60;1.00
3794;DHT22;1912;51.358;12.282;2023-07-08T05:26:03;18.70;1.00
3794;DHT22;1912;51.358;12.282;2023-07-08T05:28:30;18.80;1.00
3794;DHT22;1912;51.358;12.282;2023-07-08T05:30:56;18.90;1.00
3794;DHT22;1912;51.358;12.282;2023-07-08T05:33:23;19.10;1.00
3794;DHT22;1912;51.358;12.282;2023-07-08T05:35:50;19.20;1.00
3794;DHT22;1912;51.358;12.282;2023-07-08T05:38:16;19.40;1.00
3794;DHT22;1912;51.358;12.282;2023-07-08T05:40:41;19.80;1.00
3794;DHT22;1912;51.358;12.282;2023-07-08T05:43:07;20.60;1.00
3794;DHT22;1912;51.358;12.282;2023-07-08T05:45:33;21.50;1.00
3794;DHT22;1912;51.358;12.282;2023-07-08T05:48:01;22.30;1.00
3794;DHT22;1912;51.358;12.282;2023-07-08T05:50:27;23.10;1.00
3794;DHT22;1912;51.358;12.282;2023-07-08T05:52:53;23.50;1.00
3794;DHT22;1912;51.358;12.282;2023-07-08T05:55:18;23.90;1.00
3794;DHT22;1912;51.358;12.282;2023-07-08T05:57:44;24.20;1.00
3794;DHT22;1912;51.358;12.282;2023-07-08T06:00:10;24.40;1.00
3794;DHT22;1912;51.358;12.282;2023-07-08T06:02:36;24.70;1.00
3794;DHT22;1912;51.358;12.282;2023-07-08T06:05:02;24.90;1.00
3794;DHT22;1912;51.358;12.282;2023-07-08T06:07:28;24.80;1.00
3794;DHT22;1912;51.358;12.282;2023-07-08T06:09:53;24.70;1.00
3794;DHT22;1912;51.358;12.282;2023-07-08T06:12:21;24.50;1.00
3794;DHT22;1912;51.358;12.282;2023-07-08T06:14:47;24.70;1.00
3794;DHT22;1912;51.358;12.282;2023-07-08T06:17:13;24.80;1.00
3794;DHT22;1912;51.358;12.282;2023-07-08T06:19:38;25.40;1.00
3794;DHT22;1912;51.358;12.282;2023-07-08T06:22:04;25.70;1.00
3794;DHT22;1912;51.358;12.282;2023-07-08T06:24:30;26.00;1.00
3794;DHT22;1912;51.358;12.282;2023-07-08T06:26:56;26.40;1.00
3794;DHT22;1912;51.358;12.282;2023-07-08T06:29:22;26.70;1.00
3794;DHT22;1912;51.358;12.282;2023-07-08T06:31:47;27.00;1.00
3794;DHT22;1912;51.358;12.282;2023-07-08T06:34:13;27.00;1.00
3794;DHT22;1912;51.358;12.282;2023-07-08T06:36:38;27.10;1.00
3794;DHT22;1912;51.358;12.282;2023-07-08T06:39:04;27.20;1.00
3794;DHT22;1912;51.358;12.282;2023-07-08T06:41:32;26.90;1.00
3794;DHT22;1912;51.358;12.282;2023-07-08T06:43:58;27.20;1.00
3794;DHT22;1912;51.358;12.282;2023-07-08T06:46:24;27.30;1.00
3794;DHT22;1912;51.358;12.282;2023-07-08T06:48:50;27.30;1.00
3794;DHT22;1912;51.358;12.282;2023-07-08T06:51:15;27.40;1.00
3794;DHT22;1912;51.358;12.282;2023-07-08T06:53:41;27.10;1.00
3794;DHT22;1912;51.358;12.282;2023-07-08T06:56:07;26.60;1.00
3794;DHT22;1912;51.358;12.282;2023-07-08T06:58:33;26.70;1.00
3794;DHT22;1912;51.358;12.282;2023-07-08T07:00:59;26.80;1.00
3794;DHT22;1912;51.358;12.282;2023-07-08T07:03:25;26.70;1.00
3794;DHT22;1912;51.358;12.282;2023-07-08T07:05:51;26.70;1.00
3794;DHT22;1912;51.358;12.282;2023-07-08T07:08:16;26.70;1.00
3794;DHT22;1912;51.358;12.282;2023-07-08T07:10:42;26.80;1.00
3794;DHT22;1912;51.358;12.282;2023-07-08T07:13:08;26.90;1.00
3794;DHT22;1912;51.358;12.282;2023-07-08T07:15:34;26.90;1.00
3794;DHT22;1912;51.358;12.282;2023-07-08T07:18:00;27.00;1.00
3794;DHT22;1912;51.358;12.282;2023-07-08T07:20:26;27.00;1.00
3794;DHT22;1912;51.358;12.282;2023-07-08T07:22:52;27.10;1.00
3794;DHT22;1912;51.358;12.282;2023-07-08T07:25:18;27.30;1.00
3794;DHT22;1912;51.358;12.282;2023-07-08T07:27:44;27.30;1.00
3794;DHT22;1912;51.358;12.282;2023-07-08T07:30:10;27.60;1.00
3794;DHT22;1912;51.358;12.282;2023-07-08T07:32:41;27.70;1.00
3794;DHT22;1912;51.358;12.282;2023-07-08T07:35:08;27.80;1.00
3794;DHT22;1912;51.358;12.282;2023-07-08T07:37:38;28.10;1.00
3794;DHT22;1912;51.358;12.282;2023-07-08T07:40:07;28.50;1.00
3794;DHT22;1912;51.358;12.282;2023-07-08T07:42:38;28.50;1.00
3794;DHT22;1912;51.358;12.282;2023-07-08T07:45:05;28.70;1.00
3794;DHT22;1912;51.358;12.282;2023-07-08T07:47:31;29.00;1.00
3794;DHT22;1912;51.358;12.282;2023-07-08T07:49:57;29.30;1.00
3794;DHT22;1912;51.358;12.282;2023-07-08T07:52:24;29.30;1.00
3794;DHT22;1912;51.358;12.282;2023-07-08T07:54:54;29.40;1.00
3794;DHT22;1912;51.358;12.282;2023-07-08T07:57:21;29.60;1.00
3794;DHT22;1912;51.358;12.282;2023-07-08T07:59:47;29.60;1.00
3794;DHT22;1912;51.358;12.282;2023-07-08T08:02:14;29.80;1.00
3794;DHT22;1912;51.358;12.282;2023-07-08T08:04:40;29.60;1.00
3794;DHT22;1912;51.358;12.282;2023-07-08T08:07:06;29.50;1.00
3794;DHT22;1912;51.358;12.282;2023-07-08T08:09:31;29.80;1.00
3794;DHT22;1912;51.358;12.282;2023-07-08T08:11:57;29.90;1.00
3794;DHT22;1912;51.358;12.282;2023-07-08T08:14:23;30.30;1.00
3794;DHT22;1912;51.358;12.282;2023-07-08T08:16:48;30.60;1.00
3794;DHT22;1912;51.358;12.282;2023-07-08T08:19:14;30.80;1.00
3794;DHT22;1912;51.358;12.282;2023-07-08T08:21:40;31.00;1.00
3794;DHT22;1912;51.358;12.282;2023-07-08T08:24:05;31.00;1.00
3794;DHT22;1912;51.358;12.282;2023-07-08T08:26:31;30.90;1.00
3794;DHT22;1912;51.358;12.282;2023-07-08T08:28:57;31.00;1.00
3794;DHT22;1912;51.358;12.282;2023-07-08T08:31:22;30.50;1.00
3794;DHT22;1912;51.358;12.282;2023-07-08T08:33:48;30.30;1.00
3794;DHT22;1912;51.358;12.282;2023-07-08T08:36:14;30.90;1.00
3794;DHT22;1912;51.358;12.282;2023-07-08T08:38:39;31.30;1.00
3794;DHT22;1912;51.358;12.282;2023-07-08T08:41:16;31.90;1.00
3794;DHT22;1912;51.358;12.282;2023-07-08T08:43:44;32.10;1.00
3794;DHT22;1912;51.358;12.282;2023-07-08T08:52:26;32.90;1.00
3794;DHT22;1912;51.358;12.282;2023-07-08T08:54:51;32.60;1.00
3794;DHT22;1912;51.358;12.282;2023-07-08T09:00:56;33.50;1.00
3794;DHT22;1912;51.358;12.282;2023-07-08T09:03:36;32.70;1.00
3794;DHT22;1912;51.358;12.282;2023-07-08T09:08:50;32.60;1.00
3794;DHT22;1912;51.358;12.282;2023-07-08T09:11:23;33.10;1.00
3794;DHT22;1912;51.358;12.282;2023-07-08T09:13:53;33.10;1.00
3794;DHT22;1912;51.358;12.282;2023-07-08T09:19:25;33.20;1.00
3794;DHT22;1912;51.358;12.282;2023-07-08T09:21:59;33.50;1.00
3794;DHT22;1912;51.358;12.282;2023-07-08T09:24:34;34.10;1.00
3794;DHT22;1912;51.358;12.282;2023-07-08T09:27:05;34.40;1.00
3794;DHT22;1912;51.358;12.282;2023-07-08T09:29:32;34.50;1.00
3794;DHT22;1912;51.358;12.282;2023-07-08T09:31:59;34.60;1.00
3794;DHT22;1912;51.358;12.282;2023-07-08T09:34:41;34.50;1.00
3794;DHT22;1912;51.358;12.282;2023-07-08T09:37:27;34.10;1.00
3794;DHT22;1912;51.358;12.282;2023-07-08T09:39:58;34.40;1.00
3794;DHT22;1912;51.358;12.282;2023-07-08T09:42:44;34.20;1.00
3794;DHT22;1912;51.358;12.282;2023-07-08T09:45:18;33.80;1.00
3794;DHT22;1912;51.358;12.282;2023-07-08T09:47:45;33.70;1.00
3794;DHT22;1912;51.358;12.282;2023-07-08T09:50:21;33.50;1.00
3794;DHT22;1912;51.358;12.282;2023-07-08T09:52:51;33.60;1.00
3794;DHT22;1912;51.358;12.282;2023-07-08T09:55:23;33.70;1.00
3794;DHT22;1912;51.358;12.282;2023-07-08T09:57:51;33.80;1.00
3794;DHT22;1912;51.358;12.282;2023-07-08T10:00:27;34.60;1.00
3794;DHT22;1912;51.358;12.282;2023-07-08T10:03:19;35.40;1.00
3794;DHT22;1912;51.358;12.282;2023-07-08T10:05:48;35.00;1.00
3794;DHT22;1912;51.358;12.282;2023-07-08T10:08:17;34.00;1.00
3794;DHT22;1912;51.358;12.282;2023-07-08T10:10:49;34.00;1.00
3794;DHT22;1912;51.358;12.282;2023-07-08T10:13:37;34.90;1.00
3794;DHT22;1912;51.358;12.282;2023-07-08T10:16:17;35.70;1.00
3794;DHT22;1912;51.358;12.282;2023-07-08T10:18:48;35.40;1.00
3794;DHT22;1912;51.358;12.282;2023-07-08T10:21:47;34.90;1.00
3794;DHT22;1912;51.358;12.282;2023-07-08T10:27:35;35.20;1.00
3794;DHT22;1912;51.358;12.282;2023-07-08T10:32:35;35.90;1.00
3794;DHT22;1912;51.358;12.282;2023-07-08T10:35:17;36.50;1.00
3794;DHT22;1912;51.358;12.282;2023-07-08T10:41:00;36.50;1.00
3794;DHT22;1912;51.358;12.282;2023-07-08T10:44:09;36.60;1.00
3794;DHT22;1912;51.358;12.282;2023-07-08T10:47:05;37.50;1.00
3794;DHT22;1912;51.358;12.282;2023-07-08T10:49:45;37.30;1.00
3794;DHT22;1912;51.358;12.282;2023-07-08T10:58:20;38.20;1.00
3794;DHT22;1912;51.358;12.282;2023-07-08T11:01:34;38.50;1.00
3794;DHT22;1912;51.358;12.282;2023-07-08T11:04:11;38.50;1.00
3794;DHT22;1912;51.358;12.282;2023-07-08T11:06:53;38.60;1.00
3794;DHT22;1912;51.358;12.282;2023-07-08T11:09:38;39.10;1.00
3794;DHT22;1912;51.358;12.282;2023-07-08T11:12:25;39.10;1.00
3794;DHT22;1912;51.358;12.282;2023-07-08T11:17:45;39.70;1.00
3794;DHT22;1912;51.358;12.282;2023-07-08T11:20:24;39.60;1.00
3794;DHT22;1912;51.358;12.282;2023-07-08T11:23:22;39.20;1.00
3794;DHT22;1912;51.358;12.282;2023-07-08T11:26:23;39.50;1.00
3794;DHT22;1912;51.358;12.282;2023-07-08T11:28:56;39.50;1.00
3794;DHT22;1912;51.358;12.282;2023-07-08T11:31:24;39.50;1.00
3794;DHT22;1912;51.358;12.282;2023-07-08T11:33:52;39.00;1.00
3794;DHT22;1912;51.358;12.282;2023-07-08T11:36:19;38.60;1.00
3794;DHT22;1912;51.358;12.282;2023-07-08T11:38:54;38.00;1.00
3794;DHT22;1912;51.358;12.282;2023-07-08T11:41:23;38.30;1.00
3794;DHT22;1912;51.358;12.282;2023-07-08T11:43:53;38.40;1.00
3794;DHT22;1912;51.358;12.282;2023-07-08T11:46:28;38.30;1.00
3794;DHT22;1912;51.358;12.282;2023-07-08T11:49:01;37.80;1.00
3794;DHT22;1912;51.358;12.282;2023-07-08T11:51:35;37.60;1.00
3794;DHT22;1912;51.358;12.282;2023-07-08T11:56:56;37.40;1.00
3794;DHT22;1912;51.358;12.282;2023-07-08T11:59:24;37.70;1.00
3794;DHT22;1912;51.358;12.282;2023-07-08T12:01:54;38.10;1.00
3794;DHT22;1912;51.358;12.282;2023-07-08T12:04:31;38.70;1.00
3794;DHT22;1912;51.358;12.282;2023-07-08T12:07:17;38.30;1.00
3794;DHT22;1912;51.358;12.282;2023-07-08T12:10:10;37.70;1.00
3794;DHT22;1912;51.358;12.282;2023-07-08T12:12:56;38.00;1.00
3794;DHT22;1912;51.358;12.282;2023-07-08T12:15:25;38.60;1.00
3794;DHT22;1912;51.358;12.282;2023-07-08T12:17:56;38.60;1.00
3794;DHT22;1912;51.358;12.282;2023-07-08T12:20:31;38.20;1.00
3794;DHT22;1912;51.358;12.282;2023-07-08T12:23:02;38.10;1.00
3794;DHT22;1912;51.358;12.282;2023-07-08T12:25:33;38.20;1.00
3794;DHT22;1912;51.358;12.282;2023-07-08T12:28:00;38.20;1.00
3794;DHT22;1912;51.358;12.282;2023-07-08T12:30:28;38.70;1.00
3794;DHT22;1912;51.358;12.282;2023-07-08T12:32:56;39.00;1.00
3794;DHT22;1912;51.358;12.282;2023-07-08T12:35:27;39.20;1.00
3794;DHT22;1912;51.358;12.282;2023-07-08T12:37:58;39.10;1.00
3794;DHT22;1912;51.358;12.282;2023-07-08T12:40:27;39.30;1.00
3794;DHT22;1912;51.358;12.282;2023-07-08T12:42:55;38.80;1.00
3794;DHT22;1912;51.358;12.282;2023-07-08T12:45:23;39.40;1.00
3794;DHT22;1912;51.358;12.282;2023-07-08T12:47:51;39.50;1.00
3794;DHT22;1912;51.358;12.282;2023-07-08T12:50:17;39.60;1.00
3794;DHT22;1912;51.358;12.282;2023-07-08T12:52:44;39.30;1.00
3794;DHT22;1912;51.358;12.282;2023-07-08T12:55:11;39.30;1.00
3794;DHT22;1912;51.358;12.282;2023-07-08T12:57:43;39.30;1.00
3794;DHT22;1912;51.358;12.282;2023-07-08T13:00:24;39.00;1.00
3794;DHT22;1912;51.358;12.282;2023-07-08T13:02:58;39.00;1.00
3794;DHT22;1912;51.358;12.282;2023-07-08T13:05:26;38.90;1.00
3794;DHT22;1912;51.358;12.282;2023-07-08T13:07:52;39.20;1.00
3794;DHT22;1912;51.358;12.282;2023-07-08T13:10:21;39.60;1.00
3794;DHT22;1912;51.358;12.282;2023-07-08T13:12:53;39.50;1.00
3794;DHT22;1912;51.358;12.282;2023-07-08T13:15:26;40.00;1.00
3794;DHT22;1912;51.358;12.282;2023-07-08T13:17:54;39.50;1.00
3794;DHT22;1912;51.358;12.282;2023-07-08T13:20:20;39.80;1.00
3794;DHT22;1912;51.358;12.282;2023-07-08T13:22:55;39.50;1.00
3794;DHT22;1912;51.358;12.282;2023-07-08T13:25:28;39.40;1.00
3794;DHT22;1912;51.358;12.282;2023-07-08T13:28:11;39.30;1.00
3794;DHT22;1912;51.358;12.282;2023-07-08T13:30:53;39.50;1.00
3794;DHT22;1912;51.358;12.282;2023-07-08T13:33:23;39.10;1.00
3794;DHT22;1912;51.358;12.282;2023-07-08T13:35:51;39.40;1.00
3794;DHT22;1912;51.358;12.282;2023-07-08T13:38:19;39.40;1.00
3794;DHT22;1912;51.358;12.282;2023-07-08T13:40:55;40.00;1.00
3794;DHT22;1912;51.358;12.282;2023-07-08T13:43:28;39.70;1.00
3794;DHT22;1912;51.358;12.282;2023-07-08T13:45:55;39.80;1.00
3794;DHT22;1912;51.358;12.282;2023-07-08T13:48:26;39.50;1.00
3794;DHT22;1912;51.358;12.282;2023-07-08T13:51:09;39.40;1.00
3794;DHT22;1912;51.358;12.282;2023-07-08T13:53:49;38.60;1.00
3794;DHT22;1912;51.358;12.282;2023-07-08T13:56:32;39.00;1.00
3794;DHT22;1912;51.358;12.282;2023-07-08T13:59:10;37.70;1.00
3794;DHT22;1912;51.358;12.282;2023-07-08T14:01:41;38.20;1.00
3794;DHT22;1912;51.358;12.282;2023-07-08T14:04:09;37.00;1.00
3794;DHT22;1912;51.358;12.282;2023-07-08T14:06:37;37.50;1.00
3794;DHT22;1912;51.358;12.282;2023-07-08T14:11:48;39.30;1.00
3794;DHT22;1912;51.358;12.282;2023-07-08T14:14:14;39.50;1.00
3794;DHT22;1912;51.358;12.282;2023-07-08T14:16:43;39.40;1.00
3794;DHT22;1912;51.358;12.282;2023-07-08T14:19:25;39.50;1.00
3794;DHT22;1912;51.358;12.282;2023-07-08T14:21:56;39.60;1.00
3794;DHT22;1912;51.358;12.282;2023-07-08T14:24:24;39.00;1.00
3794;DHT22;1912;51.358;12.282;2023-07-08T14:26:51;39.30;1.00
3794;DHT22;1912;51.358;12.282;2023-07-08T14:29:17;39.50;1.00
3794;DHT22;1912;51.358;12.282;2023-07-08T14:31:43;39.40;1.00
3794;DHT22;1912;51.358;12.282;2023-07-08T14:34:12;39.50;1.00
3794;DHT22;1912;51.358;12.282;2023-07-08T14:36:38;39.60;1.00
3794;DHT22;1912;51.358;12.282;2023-07-08T14:39:17;39.40;1.00
3794;DHT22;1912;51.358;12.282;2023-07-08T14:41:45;39.10;1.00
3794;DHT22;1912;51.358;12.282;2023-07-08T14:46:52;39.30;1.00
3794;DHT22;1912;51.358;12.282;2023-07-08T14:49:21;39.80;1.00
3794;DHT22;1912;51.358;12.282;2023-07-08T14:51:48;39.80;1.00
3794;DHT22;1912;51.358;12.282;2023-07-08T14:54:14;39.10;1.00
3794;DHT22;1912;51.358;12.282;2023-07-08T14:56:41;39.40;1.00
3794;DHT22;1912;51.358;12.282;2023-07-08T14:59:12;39.40;1.00
3794;DHT22;1912;51.358;12.282;2023-07-08T15:01:41;39.50;1.00
3794;DHT22;1912;51.358;12.282;2023-07-08T15:04:16;39.30;1.00
3794;DHT22;1912;51.358;12.282;2023-07-08T15:06:44;39.40;1.00
3794;DHT22;1912;51.358;12.282;2023-07-08T15:09:10;39.40;1.00
3794;DHT22;1912;51.358;12.282;2023-07-08T15:11:37;39.40;1.00
3794;DHT22;1912;51.358;12.282;2023-07-08T15:14:06;39.60;1.00
3794;DHT22;1912;51.358;12.282;2023-07-08T15:16:35;39.20;1.00
3794;DHT22;1912;51.358;12.282;2023-07-08T15:19:01;39.30;1.00
3794;DHT22;1912;51.358;12.282;2023-07-08T15:21:26;39.20;1.00
3794;DHT22;1912;51.358;12.282;2023-07-08T15:23:52;39.00;1.00
3794;DHT22;1912;51.358;12.282;2023-07-08T15:26:18;38.40;1.00
3794;DHT22;1912;51.358;12.282;2023-07-08T15:28:46;38.90;1.00
3794;DHT22;1912;51.358;12.282;2023-07-08T15:31:15;39.10;1.00
3794;DHT22;1912;51.358;12.282;2023-07-08T15:33:43;39.40;1.00
3794;DHT22;1912;51.358;12.282;2023-07-08T15:36:13;39.10;1.00
3794;DHT22;1912;51.358;12.282;2023-07-08T15:38:39;39.20;1.00
3794;DHT22;1912;51.358;12.282;2023-07-08T15:41:23;38.50;1.00
3794;DHT22;1912;51.358;12.282;2023-07-08T15:43:52;38.50;1.00
3794;DHT22;1912;51.358;12.282;2023-07-08T15:46:18;38.00;1.00
3794;DHT22;1912;51.358;12.282;2023-07-08T15:48:44;37.90;1.00
3794;DHT22;1912;51.358;12.282;2023-07-08T15:51:14;38.00;1.00
3794;DHT22;1912;51.358;12.282;2023-07-08T15:53:40;38.00;1.00
3794;DHT22;1912;51.358;12.282;2023-07-08T15:56:12;37.70;1.00
3794;DHT22;1912;51.358;12.282;2023-07-08T15:58:40;37.90;1.00
3794;DHT22;1912;51.358;12.282;2023-07-08T16:01:11;38.40;1.00
3794;DHT22;1912;51.358;12.282;2023-07-08T16:03:45;38.60;1.00
3794;DHT22;1912;51.358;12.282;2023-07-08T16:06:11;38.60;1.00
3794;DHT22;1912;51.358;12.282;2023-07-08T16:08:37;38.20;1.00
3794;DHT22;1912;51.358;12.282;2023-07-08T16:11:08;38.20;1.00
3794;DHT22;1912;51.358;12.282;2023-07-08T16:13:41;38.60;1.00
3794;DHT22;1912;51.358;12.282;2023-07-08T16:16:10;38.50;1.00
3794;DHT22;1912;51.358;12.282;2023-07-08T16:18:36;38.30;1.00
3794;DHT22;1912;51.358;12.282;2023-07-08T16:21:02;39.10;1.00
3794;DHT22;1912;51.358;12.282;2023-07-08T16:23:28;39.30;1.00
3794;DHT22;1912;51.358;12.282;2023-07-08T16:25:54;38.80;1.00
3794;DHT22;1912;51.358;12.282;2023-07-08T16:33:41;38.70;1.00
3794;DHT22;1912;51.358;12.282;2023-07-08T16:36:19;38.40;1.00
3794;DHT22;1912;51.358;12.282;2023-07-08T16:38:47;38.80;1.00
3794;DHT22;1912;51.358;12.282;2023-07-08T16:41:17;39.10;1.00
3794;DHT22;1912;51.358;12.282;2023-07-08T16:43:45;39.30;1.00
3794;DHT22;1912;51.358;12.282;2023-07-08T16:46:12;39.40;1.00
3794;DHT22;1912;51.358;12.282;2023-07-08T16:48:39;39.20;1.00
3794;DHT22;1912;51.358;12.282;2023-07-08T16:51:14;38.80;1.00
3794;DHT22;1912;51.358;12.282;2023-07-08T16:53:42;38.60;1.00
3794;DHT22;1912;51.358;12.282;2023-07-08T16:56:10;38.30;1.00
3794;DHT22;1912;51.358;12.282;2023-07-08T16:58:36;38.10;1.00
3794;DHT22;1912;51.358;12.282;2023-07-08T17:01:02;37.50;1.00
3794;DHT22;1912;51.358;12.282;2023-07-08T17:03:28;37.30;1.00
3794;DHT22;1912;51.358;12.282;2023-07-08T17:05:54;37.10;1.00
3794;DHT22;1912;51.358;12.282;2023-07-08T17:08:20;36.80;1.00
3794;DHT22;1912;51.358;12.282;2023-07-08T17:10:45;36.50;1.00
3794;DHT22;1912;51.358;12.282;2023-07-08T17:13:11;36.60;1.00
3794;DHT22;1912;51.358;12.282;2023-07-08T17:15:38;36.30;1.00
3794;DHT22;1912;51.358;12.282;2023-07-08T17:18:04;35.90;1.00
3794;DHT22;1912;51.358;12.282;2023-07-08T17:20:36;35.70;1.00
3794;DHT22;1912;51.358;12.282;2023-07-08T17:23:13;35.50;1.00
3794;DHT22;1912;51.358;12.282;2023-07-08T17:25:39;35.40;1.00
3794;DHT22;1912;51.358;12.282;2023-07-08T17:28:05;35.10;1.00
3794;DHT22;1912;51.358;12.282;2023-07-08T17:30:31;35.10;1.00
3794;DHT22;1912;51.358;12.282;2023-07-08T17:32:58;35.00;1.00
3794;DHT22;1912;51.358;12.282;2023-07-08T17:35:25;35.00;1.00
3794;DHT22;1912;51.358;12.282;2023-07-08T17:37:52;34.90;1.00
3794;DHT22;1912;51.358;12.282;2023-07-08T17:40:23;34.80;1.00
3794;DHT22;1912;51.358;12.282;2023-07-08T17:42:52;34.50;1.00
3794;DHT22;1912;51.358;12.282;2023-07-08T17:45:22;34.40;1.00
3794;DHT22;1912;51.358;12.282;2023-07-08T17:47:49;34.40;1.00
3794;DHT22;1912;51.358;12.282;2023-07-08T17:50:18;34.10;1.00
3794;DHT22;1912;51.358;12.282;2023-07-08T17:52:50;34.00;1.00
3794;DHT22;1912;51.358;12.282;2023-07-08T17:55:17;34.20;1.00
3794;DHT22;1912;51.358;12.282;2023-07-08T17:57:45;34.20;1.00
3794;DHT22;1912;51.358;12.282;2023-07-08T18:00:16;34.10;1.00
3794;DHT22;1912;51.358;12.282;2023-07-08T18:02:44;34.00;1.00
3794;DHT22;1912;51.358;12.282;2023-07-08T18:05:16;34.00;1.00
3794;DHT22;1912;51.358;12.282;2023-07-08T18:07:45;33.90;1.00
3794;DHT22;1912;51.358;12.282;2023-07-08T18:10:11;33.80;1.00
3794;DHT22;1912;51.358;12.282;2023-07-08T18:12:37;33.60;1.00
3794;DHT22;1912;51.358;12.282;2023-07-08T18:15:23;33.60;1.00
3794;DHT22;1912;51.358;12.282;2023-07-08T18:17:53;33.60;1.00
3794;DHT22;1912;51.358;12.282;2023-07-08T18:20:21;33.50;1.00
3794;DHT22;1912;51.358;12.282;2023-07-08T18:22:53;33.40;1.00
3794;DHT22;1912;51.358;12.282;2023-07-08T18:25:22;33.20;1.00
3794;DHT22;1912;51.358;12.282;2023-07-08T18:27:50;32.90;1.00
3794;DHT22;1912;51.358;12.282;2023-07-08T18:30:18;32.80;1.00
3794;DHT22;1912;51.358;12.282;2023-07-08T18:32:50;32.80;1.00
3794;DHT22;1912;51.358;12.282;2023-07-08T18:35:21;32.80;1.00
3794;DHT22;1912;51.358;12.282;2023-07-08T18:37:49;32.50;1.00
3794;DHT22;1912;51.358;12.282;2023-07-08T18:40:24;32.10;1.00
3794;DHT22;1912;51.358;12.282;2023-07-08T18:43:01;32.10;1.00
3794;DHT22;1912;51.358;12.282;2023-07-08T18:45:31;31.90;1.00
3794;DHT22;1912;51.358;12.282;2023-07-08T18:47:57;31.70;1.00
3794;DHT22;1912;51.358;12.282;2023-07-08T18:50:23;31.60;1.00
3794;DHT22;1912;51.358;12.282;2023-07-08T18:52:49;31.60;1.00
3794;DHT22;1912;51.358;12.282;2023-07-08T18:55:18;31.50;1.00
3794;DHT22;1912;51.358;12.282;2023-07-08T18:57:45;31.40;1.00
3794;DHT22;1912;51.358;12.282;2023-07-08T19:00:16;31.30;1.00
3794;DHT22;1912;51.358;12.282;2023-07-08T19:02:57;31.10;1.00
3794;DHT22;1912;51.358;12.282;2023-07-08T19:05:24;31.00;1.00
3794;DHT22;1912;51.358;12.282;2023-07-08T19:07:51;30.90;1.00
3794;DHT22;1912;51.358;12.282;2023-07-08T19:10:19;30.60;1.00
3794;DHT22;1912;51.358;12.282;2023-07-08T19:12:47;30.60;1.00
3794;DHT22;1912;51.358;12.282;2023-07-08T19:15:24;30.50;1.00
3794;DHT22;1912;51.358;12.282;2023-07-08T19:17:52;30.40;1.00
3794;DHT22;1912;51.358;12.282;2023-07-08T19:20:19;30.20;1.00
3794;DHT22;1912;51.358;12.282;2023-07-08T19:22:48;30.10;1.00
3794;DHT22;1912;51.358;12.282;2023-07-08T19:25:23;30.00;1.00
3794;DHT22;1912;51.358;12.282;2023-07-08T19:27:49;29.90;1.00
3794;DHT22;1912;51.358;12.282;2023-07-08T19:30:16;29.80;1.00
3794;DHT22;1912;51.358;12.282;2023-07-08T19:32:48;29.70;1.00
3794;DHT22;1912;51.358;12.282;2023-07-08T19:35:18;29.50;1.00
3794;DHT22;1912;51.358;12.282;2023-07-08T19:37:46;29.50;1.00
3794;DHT22;1912;51.358;12.282;2023-07-08T19:40:15;29.20;1.00
3794;DHT22;1912;51.358;12.282;2023-07-08T19:42:44;29.00;1.00
3794;DHT22;1912;51.358;12.282;2023-07-08T19:45:18;28.90;1.00
3794;DHT22;1912;51.358;12.282;2023-07-08T19:47:46;28.70;1.00
3794;DHT22;1912;51.358;12.282;2023-07-08T19:50:13;28.60;1.00
3794;DHT22;1912;51.358;12.282;2023-07-08T19:52:39;28.50;1.00
3794;DHT22;1912;51.358;12.282;2023-07-08T19:55:05;28.40;1.00
3794;DHT22;1912;51.358;12.282;2023-07-08T19:57:45;28.30;1.00
3794;DHT22;1912;51.358;12.282;2023-07-08T20:00:24;28.00;1.00
3794;DHT22;1912;51.358;12.282;2023-07-08T20:03:04;27.90;1.00
3794;DHT22;1912;51.358;12.282;2023-07-08T20:05:32;27.70;1.00
3794;DHT22;1912;51.358;12.282;2023-07-08T20:08:19;27.70;1.00
3794;DHT22;1912;51.358;12.282;2023-07-08T20:10:55;27.60;1.00
3794;DHT22;1912;51.358;12.282;2023-07-08T20:13:26;27.30;1.00
3794;DHT22;1912;51.358;12.282;2023-07-08T20:15:56;27.10;1.00
3794;DHT22;1912;51.358;12.282;2023-07-08T20:18:28;27.10;1.00
3794;DHT22;1912;51.358;12.282;2023-07-08T20:20:56;27.00;1.00
3794;DHT22;1912;51.358;12.282;2023-07-08T20:23:26;26.90;1.00
3794;DHT22;1912;51.358;12.282;2023-07-08T20:25:53;26.70;1.00
3794;DHT22;1912;51.358;12.282;2023-07-08T20:28:21;26.70;1.00
3794;DHT22;1912;51.358;12.282;2023-07-08T20:30:53;26.70;1.00
3794;DHT22;1912;51.358;12.282;2023-07-08T20:33:20;26.60;1.00
3794;DHT22;1912;51.358;12.282;2023-07-08T20:35:47;26.70;1.00
3794;DHT22;1912;51.358;12.282;2023-07-08T20:38:14;26.50;1.00
3794;DHT22;1912;51.358;12.282;2023-07-08T20:40:40;26.50;1.00
3794;DHT22;1912;51.358;12.282;2023-07-08T20:43:11;26.40;1.00
3794;DHT22;1912;51.358;12.282;2023-07-08T20:45:39;26.20;1.00
3794;DHT22;1912;51.358;12.282;2023-07-08T20:48:13;26.10;1.00
3794;DHT22;1912;51.358;12.282;2023-07-08T20:50:44;26.10;1.00